Time;durP1;ratioP1;P1;durP2;ratioP2;P2;SDS_P1;SDS_P2;PMS_P1;PMS_P2;Temp;Humidity;BMP_temperature;BMP_pressure;BME280_temperature;BME280_humidity;BME280_pressure;Samples;Min_cycle;Max_cycle;Signal;HPM_P1;HPM_P2
2023/09/07 00:01:21;;;;;;;6.53;1.48;;;;;;;;;;12574620;23;20109;-85
2023/09/07 00:06:26;;;;;;;2.47;1.98;;;;;;;;;;12572778;23;20049;-86
2023/09/07 00:11:30;;;;;;;2.77;1.63;;;;;;;;;;12635169;23;20018;-86
2023/09/07 00:16:35;;;;;;;2.00;1.80;;;;;;;;;;12657662;23;20026;-87
2023/09/07 00:21:40;;;;;;;5.75;1.85;;;;;;;;;;12657836;23;20024;-87
2023/09/07 00:26:43;;;;;;;2.83;1.70;;;;;;;;;;12633001;23;20026;-86
2023/09/07 00:31:46;;;;;;;1.67;1.42;;;;;;;;;;12659736;23;20022;-86
2023/09/07 00:36:51;;;;;;;2.38;1.80;;;;;;;;;;12677834;23;20041;-86
2023/09/07 00:41:55;;;;;;;1.63;1.52;;;;;;;;;;12718055;23;20037;-86
2023/09/07 00:46:58;;;;;;;2.65;1.83;;;;;;;;;;12718109;23;20022;-86
2023/09/07 00:52:04;;;;;;;2.40;1.60;;;;;;;;;;12693605;23;20519;-85
2023/09/07 00:57:07;;;;;;;3.07;1.60;;;;;;;;;;12693759;23;20017;-87
2023/09/07 01:02:11;;;;;;;2.17;1.90;;;;;;;;;;12718214;23;20732;-86
2023/09/07 01:07:21;;;;;;;2.67;1.63;;;;;;;;;;12691768;23;20021;-86
2023/09/07 01:12:24;;;;;;;1.58;1.40;;;;;;;;;;12693176;23;20104;-87
2023/09/07 01:17:29;;;;;;;2.75;1.35;;;;;;;;;;12718150;23;20029;-86
2023/09/07 01:22:35;;;;;;;2.33;1.40;;;;;;;;;;12718180;23;20025;-86
2023/09/07 01:27:39;;;;;;;1.65;1.25;;;;;;;;;;12696816;23;20025;-87
2023/09/07 01:32:43;;;;;;;1.65;1.40;;;;;;;;;;12723654;23;20720;-87
2023/09/07 01:37:47;;;;;;;2.03;1.55;;;;;;;;;;12722475;23;20030;-86
2023/09/07 01:42:51;;;;;;;2.35;1.38;;;;;;;;;;12699611;23;20032;-87
2023/09/07 01:47:54;;;;;;;1.60;1.50;;;;;;;;;;12714951;23;20396;-87
2023/09/07 01:52:59;;;;;;;1.45;1.35;;;;;;;;;;12721431;23;20032;-87
2023/09/07 01:58:03;;;;;;;2.03;1.60;;;;;;;;;;12697098;23;20348;-87
2023/09/07 02:03:06;;;;;;;1.50;1.30;;;;;;;;;;12723921;23;20083;-87
2023/09/07 02:08:11;;;;;;;2.95;1.50;;;;;;;;;;12724638;23;20025;-88
2023/09/07 02:13:15;;;;;;;5.03;1.60;;;;;;;;;;12702249;23;20112;-88
2023/09/07 02:18:19;;;;;;;3.13;1.30;;;;;;;;;;12701869;23;20558;-88
2023/09/07 02:23:24;;;;;;;2.67;1.73;;;;;;;;;;12701265;23;20025;-89
2023/09/07 02:28:28;;;;;;;1.90;1.70;;;;;;;;;;12697572;23;20038;-88
2023/09/07 02:33:32;;;;;;;1.55;1.30;;;;;;;;;;12725007;23;20473;-86
2023/09/07 02:38:37;;;;;;;3.13;1.48;;;;;;;;;;12699862;23;20029;-87
2023/09/07 02:43:40;;;;;;;2.10;1.40;;;;;;;;;;12725144;23;20138;-88
2023/09/07 02:48:45;;;;;;;4.65;1.75;;;;;;;;;;12700937;23;20036;-88
2023/09/07 02:53:50;;;;;;;3.20;1.60;;;;;;;;;;12724573;23;20473;-88
2023/09/07 02:58:53;;;;;;;2.67;1.55;;;;;;;;;;12700359;23;20026;-88
2023/09/07 03:03:57;;;;;;;2.08;1.70;;;;;;;;;;12700953;23;20465;-88
2023/09/07 03:09:02;;;;;;;2.38;1.50;;;;;;;;;;12701448;23;20100;-88
2023/09/07 03:14:06;;;;;;;2.97;1.40;;;;;;;;;;12726570;23;20028;-88
2023/09/07 03:19:09;;;;;;;1.65;1.40;;;;;;;;;;12700792;23;20029;-88
2023/09/07 03:24:15;;;;;;;1.33;1.23;;;;;;;;;;12724495;23;20026;-88
2023/09/07 03:29:19;;;;;;;2.20;1.27;;;;;;;;;;12701364;23;20029;-88
2023/09/07 03:34:22;;;;;;;1.58;1.40;;;;;;;;;;12724828;23;20076;-88
2023/09/07 03:39:28;;;;;;;2.42;1.42;;;;;;;;;;12699997;23;20029;-88
2023/09/07 03:44:32;;;;;;;3.13;1.60;;;;;;;;;;12700388;23;20080;-89
2023/09/07 03:49:35;;;;;;;1.52;1.38;;;;;;;;;;12724082;23;20508;-88
2023/09/07 03:54:40;;;;;;;2.88;1.67;;;;;;;;;;12724155;23;20030;-88
2023/09/07 03:59:44;;;;;;;2.45;1.60;;;;;;;;;;12724699;23;20033;-88
2023/09/07 04:04:50;;;;;;;3.85;1.63;;;;;;;;;;12698870;23;20032;-89
2023/09/07 04:09:55;;;;;;;1.67;1.40;;;;;;;;;;12722399;23;20032;-88
2023/09/07 04:14:59;;;;;;;1.80;1.10;;;;;;;;;;12698273;23;20049;-86
2023/09/07 04:20:03;;;;;;;1.83;1.38;;;;;;;;;;12722396;23;20485;-87
2023/09/07 04:25:09;;;;;;;1.52;1.30;;;;;;;;;;12698299;23;20026;-88
2023/09/07 04:30:13;;;;;;;1.57;1.27;;;;;;;;;;12719960;23;20527;-90
2023/09/07 04:35:21;;;;;;;1.80;1.27;;;;;;;;;;12696084;23;20097;-89
2023/09/07 04:40:27;;;;;;;1.70;1.33;;;;;;;;;;12722905;23;20397;-90
2023/09/07 04:45:31;;;;;;;2.13;1.30;;;;;;;;;;12723115;23;20097;-89
2023/09/07 04:50:34;;;;;;;1.75;1.60;;;;;;;;;;12720803;23;20026;-90
2023/09/07 04:55:40;;;;;;;1.48;1.30;;;;;;;;;;12719417;23;20045;-90
2023/09/07 05:00:44;;;;;;;1.40;1.27;;;;;;;;;;12724874;23;20029;-89
2023/09/07 05:05:54;;;;;;;3.75;1.83;;;;;;;;;;12728033;23;20084;-88
2023/09/07 05:11:04;;;;;;;2.78;1.27;;;;;;;;;;12703071;23;20037;-89
2023/09/07 05:16:13;;;;;;;3.28;1.55;;;;;;;;;;12703697;23;20448;-89
2023/09/07 05:21:18;;;;;;;3.00;1.65;;;;;;;;;;12730871;23;20026;-89
2023/09/07 05:26:32;;;;;;;2.78;1.45;;;;;;;;;;12706171;23;20083;-89
2023/09/07 05:31:36;;;;;;;1.40;1.30;;;;;;;;;;12730215;23;20052;-89
2023/09/07 05:36:49;;;;;;;1.77;1.50;;;;;;;;;;12729774;23;20021;-90
2023/09/07 05:41:56;;;;;;;2.30;1.40;;;;;;;;;;12703945;23;20657;-89
2023/09/07 05:47:02;;;;;;;1.67;1.25;;;;;;;;;;12713150;23;20022;-89
2023/09/07 05:52:09;;;;;;;1.77;1.67;;;;;;;;;;12703668;23;20473;-90
2023/09/07 05:57:14;;;;;;;1.55;1.38;;;;;;;;;;12702054;23;20051;-89
2023/09/07 06:02:20;;;;;;;1.75;1.55;;;;;;;;;;12702069;23;20025;-89
2023/09/07 06:07:24;;;;;;;2.92;1.83;;;;;;;;;;12701291;23;20029;-89
2023/09/07 06:12:35;;;;;;;3.72;1.63;;;;;;;;;;12687444;23;20109;-89
2023/09/07 06:17:39;;;;;;;3.50;1.80;;;;;;;;;;12727418;23;20033;-90
2023/09/07 06:22:50;;;;;;;2.08;1.70;;;;;;;;;;12703954;23;20030;-89
2023/09/07 06:27:55;;;;;;;2.13;1.50;;;;;;;;;;12728424;23;20029;-89
2023/09/07 06:33:00;;;;;;;1.55;1.40;;;;;;;;;;12703530;23;20486;-89
2023/09/07 06:38:04;;;;;;;3.13;1.35;;;;;;;;;;12713740;23;20029;-89
2023/09/07 06:43:09;;;;;;;2.45;1.60;;;;;;;;;;12728138;23;20025;-89
2023/09/07 06:48:19;;;;;;;2.00;1.43;;;;;;;;;;12701897;23;20025;-91
2023/09/07 06:53:23;;;;;;;1.55;1.27;;;;;;;;;;12727906;23;20457;-89
2023/09/07 06:58:34;;;;;;;2.35;1.50;;;;;;;;;;12701279;23;20025;-91
2023/09/07 07:03:37;;;;;;;2.90;1.60;;;;;;;;;;12700659;23;20072;-89
2023/09/07 07:08:41;;;;;;;3.25;2.55;;;;;;;;;;12728162;23;20033;-89
2023/09/07 07:13:49;;;;;;;4.60;2.85;;;;;;;;;;12710865;23;20022;-90
2023/09/07 07:18:55;;;;;;;5.00;2.13;;;;;;;;;;12701802;23;20055;-89
2023/09/07 07:23:59;;;;;;;2.03;1.65;;;;;;;;;;12702689;23;20080;-91
2023/09/07 07:29:12;;;;;;;2.05;1.70;;;;;;;;;;12702519;23;20033;-89
2023/09/07 07:34:18;;;;;;;3.80;1.75;;;;;;;;;;12701487;23;20515;-89
2023/09/07 07:39:31;;;;;;;2.63;1.80;;;;;;;;;;12685725;23;20061;-89
2023/09/07 07:44:43;;;;;;;2.63;1.65;;;;;;;;;;12702302;23;20084;-88
2023/09/07 07:49:47;;;;;;;2.50;2.17;;;;;;;;;;12701805;23;20068;-88
2023/09/07 07:54:54;;;;;;;2.55;2.05;;;;;;;;;;12701865;23;20021;-88
2023/09/07 07:59:59;;;;;;;2.47;1.80;;;;;;;;;;12723685;23;20049;-87
2023/09/07 08:05:06;;;;;;;2.95;2.00;;;;;;;;;;12698723;23;20089;-87
2023/09/07 08:10:11;;;;;;;2.38;1.60;;;;;;;;;;12697926;23;20088;-88
2023/09/07 08:15:20;;;;;;;5.05;3.25;;;;;;;;;;12699343;23;20022;-88
2023/09/07 08:20:29;;;;;;;6.00;2.83;;;;;;;;;;12699781;23;20029;-87
2023/09/07 08:25:44;;;;;;;3.42;3.00;;;;;;;;;;12698239;23;20426;-88
2023/09/07 08:30:59;;;;;;;3.00;2.60;;;;;;;;;;12723889;23;20080;-87
2023/09/07 08:36:04;;;;;;;2.60;2.40;;;;;;;;;;12728482;23;20292;-87
2023/09/07 08:41:10;;;;;;;2.55;2.10;;;;;;;;;;12731154;23;20077;-87
2023/09/07 08:46:20;;;;;;;2.60;1.75;;;;;;;;;;12728588;23;20024;-88
2023/09/07 08:51:27;;;;;;;1.83;1.60;;;;;;;;;;12704420;23;20029;-88
2023/09/07 08:56:41;;;;;;;2.30;1.73;;;;;;;;;;12726931;23;20060;-88
2023/09/07 09:01:47;;;;;;;1.60;1.50;;;;;;;;;;12703462;23;20049;-88
2023/09/07 09:06:53;;;;;;;2.55;2.20;;;;;;;;;;12715233;23;20085;-87
2023/09/07 09:12:09;;;;;;;3.83;2.47;;;;;;;;;;12727781;23;20362;-88
2023/09/07 09:17:15;;;;;;;4.88;2.45;;;;;;;;;;12701881;23;20076;-89
2023/09/07 09:22:21;;;;;;;2.90;2.03;;;;;;;;;;12727797;23;20032;-88
2023/09/07 09:27:24;;;;;;;2.30;1.88;;;;;;;;;;12713437;23;20529;-88
2023/09/07 09:32:35;;;;;;;3.38;1.33;;;;;;;;;;12712015;23;20029;-88
2023/09/07 09:37:51;;;;;;;1.88;1.60;;;;;;;;;;12742683;23;20109;-86
2023/09/07 09:42:56;;;;;;;2.28;1.48;;;;;;;;;;12701751;23;20025;-88
2023/09/07 09:48:01;;;;;;;1.63;1.10;;;;;;;;;;12726374;23;20030;-88
2023/09/07 09:53:07;;;;;;;1.35;1.20;;;;;;;;;;12725378;23;20022;-89
2023/09/07 09:58:19;;;;;;;1.95;1.33;;;;;;;;;;12721482;23;20029;-77
2023/09/07 10:03:33;;;;;;;3.10;1.75;;;;;;;;;;12806516;23;20044;-76
2023/09/07 10:08:57;;;;;;;2.40;1.33;;;;;;;;;;12793976;23;20028;-76
2023/09/07 10:14:03;;;;;;;2.08;1.45;;;;;;;;;;12803855;23;20049;-75
2023/09/07 10:19:17;;;;;;;1.70;1.30;;;;;;;;;;12766837;23;20657;-75
2023/09/07 10:24:28;;;;;;;1.65;1.55;;;;;;;;;;12802373;23;20033;-75
2023/09/07 10:29:45;;;;;;;1.38;1.27;;;;;;;;;;12791505;23;20031;-74
2023/09/07 10:34:52;;;;;;;2.50;1.52;;;;;;;;;;12793518;23;20864;-75
2023/09/07 10:39:57;;;;;;;1.50;1.40;;;;;;;;;;12799235;23;20029;-75
2023/09/07 10:45:12;;;;;;;1.60;1.50;;;;;;;;;;12793189;23;20041;-76
2023/09/07 10:50:19;;;;;;;1.73;1.42;;;;;;;;;;12778212;23;20033;-75
2023/09/07 10:55:38;;;;;;;;;;;;;;;;;;;;;
2023/09/07 11:00:44;;;;;;;1.52;1.30;;;;;;;;;;12792944;23;20025;-77
2023/09/07 11:05:50;;;;;;;1.75;1.30;;;;;;;;;;12765684;23;20103;-76
2023/09/07 11:10:54;;;;;;;4.20;1.88;;;;;;;;;;12766629;23;20112;-76
2023/09/07 11:15:59;;;;;;;2.22;1.70;;;;;;;;;;12795050;23;20055;-76
2023/09/07 11:21:05;;;;;;;1.35;1.25;;;;;;;;;;12793628;23;20033;-76
2023/09/07 11:26:11;;;;;;;1.70;1.60;;;;;;;;;;12778851;23;20075;-76
2023/09/07 11:31:18;;;;;;;2.40;1.20;;;;;;;;;;12792527;23;20024;-76
2023/09/07 11:36:24;;;;;;;2.30;1.50;;;;;;;;;;12792559;23;20429;-76
2023/09/07 11:41:28;;;;;;;1.80;1.60;;;;;;;;;;12791930;23;20025;-76
2023/09/07 11:46:31;;;;;;;2.33;1.42;;;;;;;;;;12791565;23;20021;-75
2023/09/07 11:51:36;;;;;;;1.80;1.35;;;;;;;;;;12811690;23;20029;-76
2023/09/07 11:56:42;;;;;;;1.40;1.20;;;;;;;;;;12812223;23;20491;-76
2023/09/07 12:01:46;;;;;;;1.55;1.20;;;;;;;;;;12790080;23;20025;-76
2023/09/07 12:06:51;;;;;;;2.15;1.70;;;;;;;;;;12765131;23;20029;-76
2023/09/07 12:11:54;;;;;;;1.50;1.40;;;;;;;;;;12766264;23;20021;-75
2023/09/07 12:16:58;;;;;;;1.50;1.40;;;;;;;;;;12791153;23;20045;-76
2023/09/07 12:22:03;;;;;;;2.97;1.67;;;;;;;;;;12809020;23;20037;-75
2023/09/07 12:27:07;;;;;;;1.50;1.40;;;;;;;;;;12810669;23;20047;-76
2023/09/07 12:32:12;;;;;;;1.35;1.25;;;;;;;;;;12809741;23;20107;-76
2023/09/07 12:37:19;;;;;;;2.13;1.70;;;;;;;;;;12792228;23;20104;-76
2023/09/07 12:42:24;;;;;;;1.50;1.40;;;;;;;;;;12808176;23;20324;-76
2023/09/07 12:47:27;;;;;;;2.13;1.67;;;;;;;;;;12765210;23;20076;-76
2023/09/07 12:52:40;;;;;;;1.67;1.55;;;;;;;;;;12806640;23;20048;-76
2023/09/07 12:57:43;;;;;;;1.50;1.40;;;;;;;;;;12764481;23;20104;-76
2023/09/07 13:02:49;;;;;;;1.77;1.33;;;;;;;;;;12806601;23;20103;-76
2023/09/07 13:07:54;;;;;;;1.92;1.38;;;;;;;;;;12764733;23;20075;-75
2023/09/07 13:12:57;;;;;;;2.45;1.58;;;;;;;;;;12764778;23;20044;-76
2023/09/07 13:18:04;;;;;;;2.50;1.40;;;;;;;;;;12788530;23;20029;-76
2023/09/07 13:23:09;;;;;;;1.50;1.40;;;;;;;;;;12808457;23;20031;-75
2023/09/07 13:28:12;;;;;;;1.73;1.60;;;;;;;;;;12807788;23;20036;-75
2023/09/07 13:33:16;;;;;;;2.53;1.63;;;;;;;;;;12808562;23;20052;-76
2023/09/07 13:38:23;;;;;;;4.22;1.95;;;;;;;;;;12806914;23;20027;-76
2023/09/07 13:43:27;;;;;;;1.45;1.35;;;;;;;;;;12806652;23;20055;-76
2023/09/07 13:48:32;;;;;;;1.73;1.52;;;;;;;;;;12794252;23;20047;-76
2023/09/07 13:53:37;;;;;;;2.85;1.75;;;;;;;;;;12767937;23;20020;-75
2023/09/07 13:58:41;;;;;;;2.00;1.60;;;;;;;;;;12808388;23;20031;-76
2023/09/07 14:03:44;;;;;;;1.73;1.48;;;;;;;;;;12797396;23;20033;-76
2023/09/07 14:08:50;;;;;;;1.75;1.50;;;;;;;;;;12790145;23;20029;-76
2023/09/07 14:13:56;;;;;;;2.20;1.80;;;;;;;;;;12808401;23;20637;-76
2023/09/07 14:19:00;;;;;;;1.67;1.42;;;;;;;;;;12804689;23;20421;-76
2023/09/07 14:24:05;;;;;;;2.28;1.67;;;;;;;;;;12794337;23;20704;-76
2023/09/07 14:29:09;;;;;;;1.67;1.55;;;;;;;;;;12802282;23;20020;-75
2023/09/07 14:34:13;;;;;;;2.53;1.60;;;;;;;;;;12766858;23;20024;-75
2023/09/07 14:39:23;;;;;;;2.40;1.47;;;;;;;;;;12802309;23;20109;-75
2023/09/07 14:44:26;;;;;;;2.33;1.50;;;;;;;;;;12767133;23;20467;-76
2023/09/07 14:49:30;;;;;;;2.72;1.70;;;;;;;;;;12765889;23;20081;-75
2023/09/07 14:54:35;;;;;;;2.50;1.63;;;;;;;;;;12767169;23;20028;-74
2023/09/07 14:59:39;;;;;;;;;;;;;;;;;;12801425;23;20080;-75
2023/09/07 15:04:44;;;;;;;1.80;1.55;;;;;;;;;;12791605;23;19916;-74
2023/09/07 15:09:52;;;;;;;1.70;1.17;;;;;;;;;;12765955;23;20539;-74
2023/09/07 15:14:55;;;;;;;1.70;1.45;;;;;;;;;;12783578;23;20084;-75
2023/09/07 15:19:59;;;;;;;1.65;1.50;;;;;;;;;;12783629;23;20021;-75
2023/09/07 15:25:04;;;;;;;2.25;1.55;;;;;;;;;;12799088;23;20021;-75
2023/09/07 15:30:09;;;;;;;3.15;1.50;;;;;;;;;;12790961;23;20056;-74
2023/09/07 15:35:12;;;;;;;1.38;1.27;;;;;;;;;;12797205;23;20472;-74
2023/09/07 15:40:17;;;;;;;1.45;1.35;;;;;;;;;;12765728;23;20079;-75
2023/09/07 15:45:21;;;;;;;1.42;1.33;;;;;;;;;;12792229;23;20083;-75
2023/09/07 15:50:32;;;;;;;2.30;1.90;;;;;;;;;;12792209;23;20032;-74
2023/09/07 15:55:57;;;;;;;1.60;1.40;;;;;;;;;;12791284;23;20028;-75
2023/09/07 16:01:01;;;;;;;1.60;1.33;;;;;;;;;;12764994;23;20088;-74
2023/09/07 16:06:05;;;;;;;1.75;1.30;;;;;;;;;;12792362;23;20036;-74
2023/09/07 16:11:09;;;;;;;1.90;1.42;;;;;;;;;;12792724;23;20032;-75
2023/09/07 16:16:13;;;;;;;1.73;1.42;;;;;;;;;;12788987;23;20024;-75
2023/09/07 16:21:19;;;;;;;2.13;1.52;;;;;;;;;;12789553;23;20364;-74
2023/09/07 16:26:24;;;;;;;1.45;1.23;;;;;;;;;;12763940;23;20104;-74
2023/09/07 16:31:28;;;;;;;;;;;;;;;;;;12792453;23;20092;-74
2023/09/07 16:36:31;;;;;;;1.40;1.30;;;;;;;;;;12790870;23;19916;-74
2023/09/07 16:41:36;;;;;;;2.05;1.30;;;;;;;;;;12790994;23;20021;-76
2023/09/07 16:46:40;;;;;;;2.13;1.40;;;;;;;;;;12765191;23;20104;-74
2023/09/07 16:51:44;;;;;;;2.35;1.55;;;;;;;;;;12764915;23;20017;-75
2023/09/07 16:56:49;;;;;;;1.63;1.50;;;;;;;;;;12813172;23;20671;-75
2023/09/07 17:01:53;;;;;;;1.73;1.40;;;;;;;;;;12754229;23;20029;-74
2023/09/07 17:06:59;;;;;;;1.63;1.52;;;;;;;;;;12690819;23;20077;-75
2023/09/07 17:12:11;;;;;;;1.90;1.50;;;;;;;;;;12689758;23;20465;-75
2023/09/07 17:17:14;;;;;;;2.90;1.85;;;;;;;;;;12689239;23;20041;-74
2023/09/07 17:22:18;;;;;;;1.60;1.20;;;;;;;;;;12670916;23;20030;-75
2023/09/07 17:27:22;;;;;;;1.50;1.40;;;;;;;;;;12688605;23;20033;-74
2023/09/07 17:32:26;;;;;;;2.70;1.45;;;;;;;;;;12671485;23;20025;-74
2023/09/07 17:37:31;;;;;;;2.05;1.40;;;;;;;;;;12688624;23;20057;-74
2023/09/07 17:42:36;;;;;;;1.70;1.42;;;;;;;;;;12671861;23;20535;-75
2023/09/07 17:47:40;;;;;;;2.05;1.52;;;;;;;;;;12686857;23;20032;-74
2023/09/07 17:52:43;;;;;;;2.00;1.50;;;;;;;;;;12686719;23;20030;-75
2023/09/07 17:57:48;;;;;;;3.92;1.50;;;;;;;;;;12657651;23;20049;-75
2023/09/07 18:02:59;;;;;;;3.38;1.52;;;;;;;;;;12700742;23;20021;-74
2023/09/07 18:08:03;;;;;;;2.15;1.52;;;;;;;;;;12746453;23;20499;-75
2023/09/07 18:13:08;;;;;;;2.00;1.80;;;;;;;;;;12732806;23;20029;-74
2023/09/07 18:18:12;;;;;;;3.42;1.83;;;;;;;;;;12731200;23;20091;-75
2023/09/07 18:23:16;;;;;;;6.13;2.10;;;;;;;;;;12706151;23;20025;-75
2023/09/07 18:28:21;;;;;;;5.20;2.10;;;;;;;;;;12734115;23;20017;-75
2023/09/07 18:33:24;;;;;;;2.63;1.97;;;;;;;;;;12745655;23;20029;-75
2023/09/07 18:38:29;;;;;;;2.67;2.13;;;;;;;;;;12730918;23;20021;-75
2023/09/07 18:43:35;;;;;;;3.07;2.23;;;;;;;;;;12732447;23;20031;-75
2023/09/07 18:48:39;;;;;;;2.03;1.80;;;;;;;;;;12742736;23;20068;-75
2023/09/07 18:53:42;;;;;;;3.63;1.90;;;;;;;;;;12730016;23;20503;-74
2023/09/07 18:58:47;;;;;;;3.88;1.92;;;;;;;;;;12727417;23;20092;-75
2023/09/07 19:03:53;;;;;;;4.17;2.40;;;;;;;;;;12741527;23;20035;-75
2023/09/07 19:08:56;;;;;;;4.22;2.00;;;;;;;;;;12740761;23;20026;-75
2023/09/07 19:14:02;;;;;;;3.65;2.35;;;;;;;;;;12740185;23;20021;-75
2023/09/07 19:19:06;;;;;;;4.07;2.13;;;;;;;;;;12737912;23;20045;-75
2023/09/07 19:24:09;;;;;;;5.28;2.50;;;;;;;;;;12739917;23;20032;-75
2023/09/07 19:29:14;;;;;;;4.68;2.22;;;;;;;;;;12738119;23;20033;-75
2023/09/07 19:34:18;;;;;;;2.73;2.10;;;;;;;;;;12727446;23;20022;-75
2023/09/07 19:39:21;;;;;;;2.65;1.90;;;;;;;;;;12737325;23;20341;-74
2023/09/07 19:44:27;;;;;;;3.33;2.40;;;;;;;;;;12697286;23;20041;-75
2023/09/07 19:49:30;;;;;;;;;;;;;;;;;;12699566;23;20025;-74
2023/09/07 19:54:34;;;;;;;4.03;2.13;;;;;;;;;;12735025;23;19917;-74
2023/09/07 19:59:39;;;;;;;4.43;2.38;;;;;;;;;;12727190;23;20375;-75
2023/09/07 20:04:43;;;;;;;3.17;2.30;;;;;;;;;;12733790;23;20030;-74
2023/09/07 20:09:46;;;;;;;2.38;2.00;;;;;;;;;;12735612;23;20021;-75
2023/09/07 20:14:51;;;;;;;3.03;2.28;;;;;;;;;;12729578;23;20026;-74
2023/09/07 20:19:55;;;;;;;3.80;2.20;;;;;;;;;;12734843;23;20100;-75
2023/09/07 20:24:58;;;;;;;3.05;2.28;;;;;;;;;;12734341;23;20025;-75
2023/09/07 20:30:04;;;;;;;3.42;2.30;;;;;;;;;;12729331;23;20021;-75
2023/09/07 20:35:10;;;;;;;3.95;2.20;;;;;;;;;;12733907;23;20080;-75
2023/09/07 20:40:14;;;;;;;2.88;1.90;;;;;;;;;;12730222;23;20060;-75
2023/09/07 20:45:18;;;;;;;2.75;2.08;;;;;;;;;;12729134;23;20085;-75
2023/09/07 20:50:22;;;;;;;2.83;1.95;;;;;;;;;;12734652;23;20033;-74
2023/09/07 20:55:26;;;;;;;2.95;2.42;;;;;;;;;;12728384;23;20040;-75
2023/09/07 21:00:30;;;;;;;2.63;2.42;;;;;;;;;;12733459;23;20048;-75
2023/09/07 21:05:34;;;;;;;2.83;2.08;;;;;;;;;;12730819;23;20029;-74
2023/09/07 21:10:38;;;;;;;5.13;2.15;;;;;;;;;;12732266;23;20022;-75
2023/09/07 21:15:43;;;;;;;2.47;1.95;;;;;;;;;;12727507;23;20025;-75
2023/09/07 21:20:46;;;;;;;3.08;2.40;;;;;;;;;;12728293;23;20025;-74
2023/09/07 21:25:50;;;;;;;3.17;2.33;;;;;;;;;;12729632;23;20076;-75
2023/09/07 21:30:55;;;;;;;2.40;2.20;;;;;;;;;;12728937;23;20034;-74
2023/09/07 21:35:58;;;;;;;2.70;2.13;;;;;;;;;;12728666;23;20032;-74
2023/09/07 21:41:02;;;;;;;5.25;2.42;;;;;;;;;;12729432;23;20076;-75
2023/09/07 21:46:07;;;;;;;4.45;2.30;;;;;;;;;;12727691;23;20033;-75
2023/09/07 21:51:10;;;;;;;5.25;2.40;;;;;;;;;;12733707;23;20505;-75
2023/09/07 21:56:14;;;;;;;3.42;2.10;;;;;;;;;;12730479;23;20547;-75
2023/09/07 22:01:19;;;;;;;2.90;2.10;;;;;;;;;;12731172;23;20032;-74
2023/09/07 22:06:23;;;;;;;2.72;2.20;;;;;;;;;;12731247;23;20026;-74
2023/09/07 22:11:26;;;;;;;3.00;2.30;;;;;;;;;;12730879;23;20026;-75
2023/09/07 22:16:31;;;;;;;4.03;2.70;;;;;;;;;;12704868;23;20032;-76
2023/09/07 22:21:35;;;;;;;2.60;2.30;;;;;;;;;;12752099;23;20024;-75
2023/09/07 22:26:38;;;;;;;3.78;2.42;;;;;;;;;;12732401;23;20025;-75
2023/09/07 22:31:43;;;;;;;4.20;2.10;;;;;;;;;;12751525;23;20017;-74
2023/09/07 22:36:47;;;;;;;4.20;2.65;;;;;;;;;;12705367;23;20025;-74
2023/09/07 22:41:50;;;;;;;3.67;2.30;;;;;;;;;;12750311;23;20657;-74
2023/09/07 22:46:55;;;;;;;3.50;2.20;;;;;;;;;;12749895;23;20096;-75
2023/09/07 22:51:58;;;;;;;4.75;2.30;;;;;;;;;;12750041;23;20025;-75
2023/09/07 22:57:02;;;;;;;4.30;2.30;;;;;;;;;;12750260;23;20076;-77
2023/09/07 23:02:07;;;;;;;2.75;2.10;;;;;;;;;;12762057;23;20104;-78
2023/09/07 23:07:13;;;;;;;2.40;2.20;;;;;;;;;;12719523;23;20397;-78
2023/09/07 23:12:16;;;;;;;;;;;;;;;;;;12743128;23;20025;-77
2023/09/07 23:17:21;;;;;;;1.88;1.65;;;;;;;;;;12760202;23;19996;-78
2023/09/07 23:22:24;;;;;;;2.17;1.80;;;;;;;;;;12743308;23;20026;-77
2023/09/07 23:27:31;;;;;;;2.92;2.22;;;;;;;;;;12744195;23;20511;-77
2023/09/07 23:32:36;;;;;;;2.53;2.28;;;;;;;;;;12760247;23;20662;-77
2023/09/07 23:37:40;;;;;;;4.40;2.30;;;;;;;;;;12741688;23;20088;-77
2023/09/07 23:42:44;;;;;;;2.88;1.80;;;;;;;;;;12743518;23;20036;-77
2023/09/07 23:47:49;;;;;;;2.42;2.10;;;;;;;;;;12757632;23;20026;-77
2023/09/07 23:52:52;;;;;;;2.22;2.00;;;;;;;;;;12758450;23;20584;-77
2023/09/07 23:57:55;;;;;;;5.30;1.77;;;;;;;;;;12717645;23;20035;-77
